Time;durP1;ratioP1;P1;durP2;ratioP2;P2;SDS_P1;SDS_P2;PMS_P1;PMS_P2;Temp;Humidity;BMP_temperature;BMP_pressure;BME280_temperature;BME280_humidity;BME280_pressure;Samples;Min_cycle;Max_cycle;Signal;HPM_P1;HPM_P2
2023/08/20 00:01:28;;;;;;;0.00;0.00;;;;;;;27.06;55.45;102094.06;5039602;28;20110;-65
2023/08/20 00:03:55;;;;;;;0.00;0.00;;;;;;;27.02;55.36;102093.03;5047221;28;20527;-65
2023/08/20 00:06:21;;;;;;;0.00;0.00;;;;;;;27.01;56.63;102097.72;5048454;28;20531;-64
2023/08/20 00:08:47;;;;;;;0.00;0.00;;;;;;;27.10;55.35;102089.56;5048135;28;20045;-64
2023/08/20 00:11:13;;;;;;;0.00;0.00;;;;;;;26.99;55.52;102093.66;5048089;28;20045;-64
2023/08/20 00:13:39;;;;;;;0.00;0.00;;;;;;;27.00;55.71;102100.78;5048813;28;20037;-65
2023/08/20 00:16:05;;;;;;;0.00;0.00;;;;;;;26.91;55.61;102097.91;5029626;28;20428;-63
2023/08/20 00:18:31;;;;;;;0.00;0.00;;;;;;;26.92;55.80;102108.66;5047891;28;20570;-63
2023/08/20 00:20:56;;;;;;;0.00;0.00;;;;;;;26.89;55.80;102108.41;5048305;28;20029;-64
2023/08/20 00:23:22;;;;;;;0.00;0.00;;;;;;;26.95;56.20;102108.03;5048120;28;20117;-65
2023/08/20 00:25:48;;;;;;;0.00;0.00;;;;;;;26.68;56.68;102104.38;5048438;28;20460;-64
2023/08/20 00:28:13;;;;;;;0.00;0.00;;;;;;;26.90;55.52;102102.63;5048215;28;20500;-63
2023/08/20 00:30:39;;;;;;;0.00;0.00;;;;;;;26.86;55.52;102112.63;5047986;28;20028;-64
2023/08/20 00:33:04;;;;;;;0.00;0.00;;;;;;;26.80;55.83;102113.84;5051718;28;20073;-64
2023/08/20 00:35:30;;;;;;;0.00;0.00;;;;;;;26.64;56.64;102108.84;5052068;28;20028;-64
2023/08/20 00:37:55;;;;;;;0.00;0.00;;;;;;;26.75;55.93;102115.88;5059713;28;20020;-64
2023/08/20 00:40:21;;;;;;;0.00;0.00;;;;;;;26.68;55.76;102113.47;5052564;28;20025;-63
2023/08/20 00:42:46;;;;;;;0.00;0.00;;;;;;;27.06;55.45;102124.41;5051730;28;20033;-64
2023/08/20 00:45:12;;;;;;;0.00;0.00;;;;;;;27.20;54.72;102125.25;5051630;28;20037;-64
2023/08/20 00:47:37;;;;;;;0.00;0.00;;;;;;;27.27;55.03;102123.72;5047446;28;20531;-64
2023/08/20 00:50:06;;;;;;;0.00;0.00;;;;;;;27.38;55.17;102125.19;5051526;28;20025;-65
2023/08/20 00:52:33;;;;;;;0.00;0.00;;;;;;;27.56;54.17;102127.00;5052325;28;20495;-64
2023/08/20 00:54:59;;;;;;;0.00;0.00;;;;;;;27.49;54.68;102134.09;5051697;28;20075;-64
2023/08/20 00:57:26;;;;;;;0.00;0.00;;;;;;;27.52;53.51;102119.66;5051521;28;20400;-66
2023/08/20 00:59:54;;;;;;;0.00;0.00;;;;;;;27.62;53.68;102113.91;5051287;28;20048;-65
2023/08/20 01:02:20;;;;;;;0.00;0.00;;;;;;;27.00;55.29;102112.66;5051571;28;20029;-63
2023/08/20 01:04:46;;;;;;;0.00;0.00;;;;;;;27.18;54.28;102116.47;5051862;28;20070;-64
2023/08/20 01:07:38;;;;;;;0.00;0.00;;;;;;;27.14;54.39;102127.28;5051484;28;20477;-65
2023/08/20 01:10:33;;;;;;;0.00;0.00;;;;;;;26.95;55.32;102135.63;5008650;28;20080;-64
2023/08/20 01:13:00;;;;;;;0.00;0.00;;;;;;;26.78;56.05;102135.41;5008853;28;20045;-64
2023/08/20 01:15:26;;;;;;;0.00;0.00;;;;;;;27.03;54.97;102145.16;5008681;28;20089;-64
2023/08/20 01:17:51;;;;;;;0.00;0.00;;;;;;;27.06;54.60;102135.44;5008721;28;20086;-64
2023/08/20 01:20:17;;;;;;;0.00;0.00;;;;;;;27.08;54.79;102147.00;5008411;28;20045;-64
2023/08/20 01:23:20;;;;;;;0.00;0.00;;;;;;;27.15;54.68;102133.63;5008980;28;20026;-64
2023/08/20 01:26:18;;;;;;;0.00;0.00;;;;;;;26.70;56.72;102141.59;4934357;29;20405;-65
2023/08/20 01:28:44;;;;;;;0.00;0.00;;;;;;;26.90;54.90;102146.78;4938903;29;20503;-65
2023/08/20 01:31:11;;;;;;;0.00;0.00;;;;;;;26.85;55.16;102146.00;4942080;29;20043;-63
2023/08/20 01:33:37;;;;;;;0.00;0.00;;;;;;;26.76;55.05;102148.66;4930843;29;20046;-64
2023/08/20 01:36:09;;;;;;;0.00;0.00;;;;;;;26.69;55.01;102150.94;4945787;29;20043;-64
2023/08/20 01:38:35;;;;;;;0.08;0.08;;;;;;;26.59;55.51;102159.41;4937219;29;20035;-64
2023/08/20 01:41:00;;;;;;;0.00;0.00;;;;;;;26.56;55.54;102160.00;4940173;29;20094;-64
2023/08/20 01:43:25;;;;;;;0.00;0.00;;;;;;;26.71;55.13;102164.50;4941464;29;20118;-65
2023/08/20 01:45:51;;;;;;;0.00;0.00;;;;;;;26.60;55.34;102165.72;4931489;29;20074;-64
2023/08/20 01:48:16;;;;;;;0.00;0.00;;;;;;;26.68;55.16;102174.16;4983762;28;20039;-63
2023/08/20 01:50:42;;;;;;;0.00;0.00;;;;;;;26.62;55.65;102183.63;4976373;28;20057;-65
2023/08/20 01:53:07;;;;;;;0.00;0.00;;;;;;;26.57;55.00;102188.41;4977402;28;20046;-63
2023/08/20 01:55:32;;;;;;;0.00;0.00;;;;;;;26.61;55.71;102184.72;4983775;28;20716;-64
2023/08/20 01:57:58;;;;;;;0.00;0.00;;;;;;;26.45;55.29;102182.53;4972196;28;20034;-63
2023/08/20 02:00:23;;;;;;;0.00;0.00;;;;;;;26.50;56.10;102179.66;4967007;28;20507;-63
2023/08/20 02:02:49;;;;;;;0.00;0.00;;;;;;;26.47;55.56;102194.06;5009905;28;20037;-64
2023/08/20 02:05:14;;;;;;;0.00;0.00;;;;;;;26.41;56.34;102190.56;5050205;28;20036;-64
2023/08/20 02:07:39;;;;;;;0.00;0.00;;;;;;;26.52;55.60;102192.03;5050783;28;20025;-63
2023/08/20 02:10:05;;;;;;;0.00;0.00;;;;;;;26.62;55.46;102197.41;5049997;28;20485;-64
2023/08/20 02:12:31;;;;;;;0.00;0.00;;;;;;;26.48;55.18;102191.00;5044206;28;20276;-64
2023/08/20 02:14:56;;;;;;;0.00;0.00;;;;;;;26.53;55.47;102190.13;5032041;28;20493;-63
2023/08/20 02:17:23;;;;;;;0.00;0.00;;;;;;;26.45;55.55;102190.78;5037011;28;20033;-63
2023/08/20 02:19:48;;;;;;;0.00;0.00;;;;;;;26.32;55.68;102188.78;5047073;28;20403;-64
2023/08/20 02:22:14;;;;;;;0.00;0.00;;;;;;;26.26;55.88;102193.53;5034326;28;20060;-64
2023/08/20 02:24:39;;;;;;;0.00;0.00;;;;;;;26.35;55.34;102190.94;5042172;28;20037;-64
2023/08/20 02:27:04;;;;;;;0.10;0.10;;;;;;;25.98;56.25;102186.19;5040941;28;20501;-64
2023/08/20 02:29:30;;;;;;;0.10;0.10;;;;;;;26.21;55.96;102196.38;5036700;28;20029;-64
2023/08/20 02:31:55;;;;;;;0.10;0.10;;;;;;;26.18;55.08;102196.16;5048315;28;20539;-63
2023/08/20 02:34:20;;;;;;;0.00;0.00;;;;;;;25.96;55.94;102203.00;5034859;28;20074;-63
2023/08/20 02:36:48;;;;;;;0.00;0.00;;;;;;;26.09;55.50;102204.25;5041155;28;20513;-64
2023/08/20 02:39:13;;;;;;;0.00;0.00;;;;;;;26.17;54.50;102203.59;5041710;28;20123;-65
2023/08/20 02:41:39;;;;;;;0.00;0.00;;;;;;;26.33;54.85;102193.16;5033947;28;20029;-65
2023/08/20 02:44:04;;;;;;;0.03;0.03;;;;;;;26.30;54.19;102189.06;5026964;28;20040;-65
2023/08/20 02:46:30;;;;;;;0.00;0.00;;;;;;;25.98;55.11;102177.94;5046101;28;20481;-65
2023/08/20 02:48:55;;;;;;;0.00;0.00;;;;;;;26.20;54.88;102171.88;5040013;28;20029;-66
2023/08/20 02:51:20;;;;;;;0.00;0.00;;;;;;;26.29;54.16;102172.84;5034648;28;20029;-64
2023/08/20 02:53:46;;;;;;;0.00;0.00;;;;;;;26.32;54.74;102173.03;5032139;28;20037;-64
2023/08/20 02:56:11;;;;;;;0.00;0.00;;;;;;;26.26;53.99;102173.44;5038152;28;20029;-64
2023/08/20 02:58:37;;;;;;;0.00;0.00;;;;;;;26.19;54.10;102167.47;5018545;28;20551;-65
2023/08/20 03:01:02;;;;;;;0.08;0.08;;;;;;;26.32;53.87;102167.53;5038646;28;20115;-64
2023/08/20 03:03:28;;;;;;;0.00;0.00;;;;;;;26.25;54.21;102160.75;5035406;28;20033;-64
2023/08/20 03:05:53;;;;;;;0.00;0.00;;;;;;;26.28;53.93;102162.94;5032381;28;20083;-64
2023/08/20 03:08:19;;;;;;;0.00;0.00;;;;;;;26.24;54.66;102162.69;5044743;28;20040;-64
2023/08/20 03:10:44;;;;;;;0.00;0.00;;;;;;;26.24;54.18;102159.94;5029452;28;20521;-65
2023/08/20 03:13:10;;;;;;;0.10;0.00;;;;;;;26.15;53.83;102150.72;5037353;28;20037;-64
2023/08/20 03:15:35;;;;;;;0.00;0.00;;;;;;;26.18;54.09;102158.38;5036507;28;20037;-63
2023/08/20 03:18:00;;;;;;;0.05;0.05;;;;;;;25.91;54.49;102155.41;5032090;28;20037;-64
2023/08/20 03:20:28;;;;;;;0.00;0.00;;;;;;;25.98;54.41;102156.69;5024537;28;20036;-65
2023/08/20 03:22:53;;;;;;;0.00;0.00;;;;;;;26.02;54.42;102156.94;5030714;28;20254;-64
2023/08/20 03:25:19;;;;;;;0.00;0.00;;;;;;;26.00;54.67;102148.16;5036031;28;20041;-64
2023/08/20 03:27:44;;;;;;;0.00;0.00;;;;;;;25.89;55.34;102149.38;5044872;28;20116;-64
2023/08/20 03:30:10;;;;;;;0.00;0.00;;;;;;;25.93;54.21;102158.69;5032031;28;20655;-64
2023/08/20 03:32:35;;;;;;;0.03;0.03;;;;;;;25.88;54.88;102156.84;5041968;28;20052;-64
2023/08/20 03:35:01;;;;;;;0.10;0.10;;;;;;;25.96;54.28;102164.41;5030158;28;20025;-64
2023/08/20 03:37:27;;;;;;;0.03;0.03;;;;;;;26.03;53.87;102158.56;5029204;28;20025;-64
2023/08/20 03:39:52;;;;;;;0.00;0.00;;;;;;;25.92;54.15;102165.34;5029858;28;20037;-64
2023/08/20 03:42:18;;;;;;;0.00;0.00;;;;;;;25.97;54.26;102166.06;5037282;28;20101;-64
2023/08/20 03:44:43;;;;;;;0.00;0.00;;;;;;;25.86;54.52;102177.53;5048732;28;20044;-65
2023/08/20 03:47:09;;;;;;;0.00;0.00;;;;;;;25.82;54.68;102169.03;5037320;28;20025;-64
2023/08/20 03:49:34;;;;;;;0.08;0.08;;;;;;;25.77;54.53;102177.34;5026082;28;20246;-64
2023/08/20 03:52:01;;;;;;;0.10;0.10;;;;;;;25.71;54.89;102177.72;5046405;28;20061;-64
2023/08/20 03:54:28;;;;;;;0.10;0.10;;;;;;;25.73;54.93;102178.25;5028298;28;20044;-64
2023/08/20 03:56:53;;;;;;;0.00;0.00;;;;;;;25.74;54.69;102172.44;5019221;28;20424;-64
2023/08/20 03:59:19;;;;;;;0.00;0.00;;;;;;;25.65;55.55;102174.19;5028379;28;20060;-64
2023/08/20 04:01:44;;;;;;;0.00;0.00;;;;;;;25.70;54.93;102179.66;5031141;28;20022;-65
2023/08/20 04:04:09;;;;;;;0.00;0.00;;;;;;;25.67;55.35;102188.47;5027063;28;20037;-65
2023/08/20 04:06:35;;;;;;;0.03;0.03;;;;;;;25.82;54.78;102190.25;5024964;28;20041;-64
2023/08/20 04:09:00;;;;;;;0.00;0.00;;;;;;;25.81;55.00;102194.09;5032244;28;20026;-65
2023/08/20 04:11:26;;;;;;;0.00;0.00;;;;;;;25.97;54.28;102195.56;5039764;28;20052;-65
2023/08/20 04:13:51;;;;;;;0.00;0.00;;;;;;;25.96;54.99;102189.22;5052394;28;20387;-65
2023/08/20 04:16:16;;;;;;;0.08;0.08;;;;;;;25.88;55.11;102197.34;5051653;28;20082;-64
2023/08/20 04:18:42;;;;;;;0.00;0.00;;;;;;;25.99;54.94;102204.34;5051265;28;20029;-65
2023/08/20 04:21:07;;;;;;;0.03;0.03;;;;;;;26.03;54.50;102188.88;5063229;28;20443;-65
2023/08/20 04:23:32;;;;;;;0.10;0.10;;;;;;;25.93;54.52;102198.09;5071393;28;20056;-65
2023/08/20 04:25:58;;;;;;;0.10;0.10;;;;;;;25.79;55.04;102190.81;5053068;28;20024;-64
2023/08/20 04:28:23;;;;;;;0.00;0.00;;;;;;;25.78;54.97;102195.53;5032545;28;20033;-65
2023/08/20 04:30:54;;;;;;;0.10;0.10;;;;;;;25.74;55.38;102199.16;5040208;28;20034;-65
2023/08/20 04:33:19;;;;;;;0.10;0.10;;;;;;;25.64;55.85;102196.53;5057305;28;20518;-65
2023/08/20 04:35:45;;;;;;;0.00;0.00;;;;;;;25.82;55.71;102202.09;5055460;28;20029;-64
2023/08/20 04:38:10;;;;;;;0.10;0.10;;;;;;;25.70;56.37;102203.59;5062286;28;20372;-65
2023/08/20 04:40:35;;;;;;;0.00;0.00;;;;;;;25.78;55.83;102209.31;5060875;28;20074;-65
2023/08/20 04:43:01;;;;;;;0.08;0.08;;;;;;;25.92;55.32;102201.97;5054232;28;20389;-65
2023/08/20 04:45:26;;;;;;;0.00;0.00;;;;;;;25.86;55.51;102205.91;5058656;28;20036;-66
2023/08/20 04:47:51;;;;;;;0.00;0.00;;;;;;;25.84;55.36;102216.41;5054302;28;20033;-65
2023/08/20 04:50:17;;;;;;;0.10;0.10;;;;;;;25.88;55.49;102222.13;5060074;28;20602;-65
2023/08/20 04:52:42;;;;;;;0.10;0.10;;;;;;;25.89;55.35;102227.34;5051974;28;20028;-65
2023/08/20 04:55:08;;;;;;;0.00;0.00;;;;;;;26.05;54.69;102226.03;5043621;28;20051;-65
2023/08/20 04:57:34;;;;;;;0.00;0.00;;;;;;;25.98;55.40;102217.28;5052388;28;20484;-64
2023/08/20 04:59:59;;;;;;;0.00;0.00;;;;;;;26.00;54.71;102225.28;5059798;28;20408;-65
2023/08/20 05:02:25;;;;;;;0.00;0.00;;;;;;;25.95;55.14;102220.66;5051365;28;20349;-64
2023/08/20 05:04:50;;;;;;;0.00;0.00;;;;;;;25.99;54.26;102227.22;5060371;28;20021;-65
2023/08/20 05:07:16;;;;;;;0.00;0.00;;;;;;;25.97;54.26;102223.94;5056135;28;20048;-65
2023/08/20 05:09:41;;;;;;;0.00;0.00;;;;;;;25.92;55.69;102220.44;5055299;28;20053;-65
2023/08/20 05:12:07;;;;;;;0.00;0.00;;;;;;;25.79;55.38;102227.44;5052495;28;20033;-66
2023/08/20 05:14:33;;;;;;;0.00;0.00;;;;;;;25.78;55.47;102227.75;5059854;28;20110;-65
2023/08/20 05:16:58;;;;;;;0.00;0.00;;;;;;;25.84;55.03;102227.41;5043663;28;20434;-65
2023/08/20 05:19:23;;;;;;;0.00;0.00;;;;;;;25.90;54.85;102222.66;5062428;28;20028;-64
2023/08/20 05:21:49;;;;;;;0.00;0.00;;;;;;;25.86;55.03;102230.69;5062459;28;20040;-65
2023/08/20 05:24:14;;;;;;;0.00;0.00;;;;;;;25.85;55.15;102233.72;5050931;28;20032;-65
2023/08/20 05:26:39;;;;;;;0.00;0.00;;;;;;;26.06;54.42;102232.41;5059567;28;20036;-64
2023/08/20 05:29:05;;;;;;;0.00;0.00;;;;;;;26.14;54.22;102231.75;5053843;28;20029;-65
2023/08/20 05:31:30;;;;;;;0.00;0.00;;;;;;;26.23;54.01;102231.91;5056609;28;20021;-65
2023/08/20 05:33:56;;;;;;;0.00;0.00;;;;;;;26.17;53.79;102238.59;5030610;28;20033;-64
2023/08/20 05:36:23;;;;;;;0.10;0.10;;;;;;;26.20;54.29;102244.31;5044311;28;20480;-64
2023/08/20 05:38:48;;;;;;;0.00;0.00;;;;;;;26.21;54.62;102240.47;5061856;28;20489;-64
2023/08/20 05:41:14;;;;;;;0.00;0.00;;;;;;;26.33;54.06;102245.53;5058654;28;20040;-65
2023/08/20 05:43:39;;;;;;;0.00;0.00;;;;;;;26.23;54.47;102246.50;5054139;28;20025;-66
2023/08/20 05:46:04;;;;;;;0.00;0.00;;;;;;;26.24;53.75;102248.13;5050449;28;20036;-65
2023/08/20 05:48:30;;;;;;;0.00;0.00;;;;;;;26.27;54.30;102242.03;5059202;28;20523;-65
2023/08/20 05:50:56;;;;;;;0.05;0.05;;;;;;;26.37;54.24;102249.34;5051964;28;20021;-65
2023/08/20 05:53:22;;;;;;;0.00;0.00;;;;;;;26.33;54.53;102237.28;5057145;28;20066;-65
2023/08/20 05:55:47;;;;;;;0.00;0.00;;;;;;;24.93;58.90;102241.22;5059373;28;20031;-65
2023/08/20 05:58:13;;;;;;;0.00;0.00;;;;;;;26.11;55.53;102243.34;5032177;28;20036;-64
2023/08/20 06:00:38;;;;;;;0.00;0.00;;;;;;;26.67;53.56;102243.41;5043035;28;20037;-65
2023/08/20 06:03:04;;;;;;;0.00;0.00;;;;;;;26.32;54.28;102247.47;5052326;28;20412;-64
2023/08/20 06:05:29;;;;;;;0.10;0.10;;;;;;;26.71;53.50;102241.72;5055961;28;20407;-65
2023/08/20 06:07:55;;;;;;;0.10;0.10;;;;;;;26.83;53.97;102255.84;5058819;28;20029;-65
2023/08/20 06:10:20;;;;;;;0.00;0.00;;;;;;;26.94;53.08;102249.06;5049744;28;20020;-64
2023/08/20 06:12:46;;;;;;;0.00;0.00;;;;;;;27.05;53.21;102252.47;5050320;28;20033;-65
2023/08/20 06:15:11;;;;;;;0.00;0.00;;;;;;;26.98;52.90;102254.81;5062979;28;20051;-64
2023/08/20 06:17:36;;;;;;;0.00;0.00;;;;;;;27.04;53.25;102245.31;5042057;28;20056;-65
2023/08/20 06:20:07;;;;;;;0.00;0.00;;;;;;;27.22;53.09;102244.47;5058441;28;20040;-66
2023/08/20 06:22:32;;;;;;;0.00;0.00;;;;;;;27.10;53.78;102239.44;5050441;28;20055;-64
2023/08/20 06:24:57;;;;;;;0.00;0.00;;;;;;;27.28;53.19;102234.97;5051694;28;20033;-65
2023/08/20 06:27:23;;;;;;;0.00;0.00;;;;;;;27.33;52.31;102230.22;5056508;28;20196;-65
2023/08/20 06:29:48;;;;;;;0.00;0.00;;;;;;;27.29;52.95;102242.13;5057318;28;20090;-65
2023/08/20 06:32:13;;;;;;;0.00;0.00;;;;;;;27.36;52.58;102239.84;5049605;28;20389;-65
2023/08/20 06:34:39;;;;;;;0.00;0.00;;;;;;;27.52;52.55;102238.41;5058852;28;20036;-64
2023/08/20 06:37:04;;;;;;;0.00;0.00;;;;;;;27.55;52.79;102244.16;5053939;28;20446;-65
2023/08/20 06:39:30;;;;;;;0.00;0.00;;;;;;;27.70;52.01;102248.56;5055557;28;20045;-64
2023/08/20 06:41:55;;;;;;;0.00;0.00;;;;;;;27.70;51.99;102251.31;5048549;28;20040;-65
2023/08/20 06:44:21;;;;;;;0.00;0.00;;;;;;;27.64;52.37;102241.50;5049061;28;20032;-65
2023/08/20 06:46:46;;;;;;;0.00;0.00;;;;;;;27.53;52.47;102245.59;5049627;28;20017;-64
2023/08/20 06:49:11;;;;;;;0.00;0.00;;;;;;;27.64;53.38;102238.72;5048969;28;20028;-65
2023/08/20 06:51:37;;;;;;;0.00;0.00;;;;;;;27.87;52.46;102243.25;5048680;28;20037;-64
2023/08/20 06:54:03;;;;;;;0.00;0.00;;;;;;;27.99;52.60;102243.56;5048750;28;20029;-65
2023/08/20 06:56:29;;;;;;;0.00;0.00;;;;;;;27.91;52.52;102244.25;5049189;28;20405;-65
2023/08/20 06:58:54;;;;;;;0.00;0.00;;;;;;;27.64;53.73;102238.72;5048701;28;20055;-64
2023/08/20 07:01:19;;;;;;;0.00;0.00;;;;;;;27.96;52.36;102243.38;5049222;28;20020;-66
2023/08/20 07:03:45;;;;;;;0.00;0.00;;;;;;;27.23;54.08;102248.84;5048468;28;20483;-65
2023/08/20 07:06:11;;;;;;;0.00;0.00;;;;;;;27.66;53.74;102248.34;5048746;28;20523;-64
2023/08/20 07:08:40;;;;;;;0.00;0.00;;;;;;;27.69;53.91;102247.72;5048593;28;20554;-66
2023/08/20 07:11:06;;;;;;;0.00;0.00;;;;;;;27.72;53.71;102252.66;5048242;28;20045;-65
2023/08/20 07:13:31;;;;;;;0.00;0.00;;;;;;;27.21;55.35;102251.91;5049215;28;20013;-65
2023/08/20 07:15:56;;;;;;;0.00;0.00;;;;;;;27.98;52.97;102246.66;5048304;28;20025;-65
2023/08/20 07:18:22;;;;;;;0.00;0.00;;;;;;;27.91;53.33;102257.28;5048280;28;20400;-64
2023/08/20 07:20:47;;;;;;;0.00;0.00;;;;;;;28.09;52.79;102259.16;5051112;28;20037;-64
2023/08/20 07:23:13;;;;;;;0.00;0.00;;;;;;;27.88;53.16;102261.47;5050847;28;20025;-66
2023/08/20 07:25:39;;;;;;;0.00;0.00;;;;;;;27.90;52.91;102261.16;5052892;28;20029;-65
2023/08/20 07:28:06;;;;;;;0.00;0.00;;;;;;;27.56;52.58;102259.59;5046893;28;20041;-66
2023/08/20 07:30:31;;;;;;;0.00;0.00;;;;;;;27.92;53.23;102256.13;5043849;28;20254;-66
2023/08/20 07:32:57;;;;;;;0.00;0.00;;;;;;;28.61;50.95;102253.84;5018531;28;20034;-66
2023/08/20 07:35:23;;;;;;;0.00;0.00;;;;;;;28.62;50.97;102261.00;5028126;28;20386;-67
2023/08/20 07:37:48;;;;;;;0.00;0.00;;;;;;;28.28;51.95;102265.38;5032858;28;20021;-65
2023/08/20 07:40:13;;;;;;;0.00;0.00;;;;;;;28.16;51.94;102259.53;5053387;28;20037;-65
2023/08/20 07:42:42;;;;;;;0.00;0.00;;;;;;;28.10;51.80;102266.31;5057046;28;20526;-65
2023/08/20 07:45:08;;;;;;;0.00;0.00;;;;;;;28.30;51.62;102257.59;5056551;28;20033;-66
2023/08/20 07:47:36;;;;;;;0.00;0.00;;;;;;;28.59;50.92;102258.06;5056938;28;20044;-65
2023/08/20 07:50:01;;;;;;;0.00;0.00;;;;;;;27.89;52.17;102254.84;5049083;28;20464;-64
2023/08/20 07:52:27;;;;;;;0.00;0.00;;;;;;;28.32;51.53;102264.44;5066350;28;20060;-65
2023/08/20 07:54:52;;;;;;;0.00;0.00;;;;;;;28.90;50.79;102264.50;5048602;28;20041;-64
2023/08/20 07:57:18;;;;;;;0.00;0.00;;;;;;;28.58;51.15;102265.53;5055478;28;20072;-65
2023/08/20 07:59:43;;;;;;;0.00;0.00;;;;;;;29.16;49.85;102271.09;5064101;28;20059;-64
2023/08/20 08:02:08;;;;;;;0.00;0.00;;;;;;;28.59;51.11;102272.72;5043925;28;20079;-65
2023/08/20 08:04:34;;;;;;;0.00;0.00;;;;;;;28.67;50.79;102273.09;5040885;28;20029;-65
2023/08/20 08:07:00;;;;;;;0.00;0.00;;;;;;;28.96;49.67;102276.25;5037350;28;20556;-64
2023/08/20 08:09:32;;;;;;;0.00;0.00;;;;;;;28.46;51.48;102270.75;5043809;28;20484;-64
2023/08/20 08:11:58;;;;;;;0.00;0.00;;;;;;;29.25;49.37;102271.94;5043041;28;20041;-65
2023/08/20 08:14:24;;;;;;;0.00;0.00;;;;;;;29.25;48.45;102269.19;5052321;28;20040;-64
2023/08/20 08:16:50;;;;;;;0.00;0.00;;;;;;;29.14;48.50;102270.59;5048721;28;20028;-64
2023/08/20 08:19:16;;;;;;;0.00;0.00;;;;;;;28.98;48.45;102274.00;5048369;28;20033;-65
2023/08/20 08:21:43;;;;;;;0.00;0.00;;;;;;;29.19;48.02;102270.44;5046664;28;20044;-64
2023/08/20 08:24:09;;;;;;;0.00;0.00;;;;;;;28.96;49.40;102277.09;5046973;28;20033;-65
2023/08/20 08:26:38;;;;;;;0.00;0.00;;;;;;;29.22;48.84;102275.38;5048315;28;20033;-64
2023/08/20 08:29:03;;;;;;;0.00;0.00;;;;;;;28.74;49.41;102273.50;5027974;28;21583;-64
2023/08/20 08:31:29;;;;;;;0.00;0.00;;;;;;;29.38;48.50;102276.63;5047562;28;20016;-64
2023/08/20 08:33:55;;;;;;;0.00;0.00;;;;;;;29.52;46.49;102284.00;5048396;28;20121;-65
2023/08/20 08:36:20;;;;;;;0.00;0.00;;;;;;;29.40;46.57;102288.16;5048437;28;20064;-65
2023/08/20 08:38:45;;;;;;;0.00;0.00;;;;;;;28.99;47.02;102279.22;5048666;28;20029;-63
2023/08/20 08:41:12;;;;;;;0.00;0.00;;;;;;;28.25;49.18;102286.16;5042182;28;20095;-66
2023/08/20 08:43:39;;;;;;;0.00;0.00;;;;;;;30.03;45.19;102285.09;5024159;28;20029;-64
2023/08/20 08:46:07;;;;;;;0.00;0.00;;;;;;;29.44;47.03;102291.94;5025496;28;20140;-65
2023/08/20 08:48:35;;;;;;;0.00;0.00;;;;;;;29.59;46.71;102292.69;5028051;28;20128;-66
2023/08/20 08:51:01;;;;;;;0.00;0.00;;;;;;;29.70;46.75;102303.16;5023593;28;20532;-64
2023/08/20 08:53:26;;;;;;;0.00;0.00;;;;;;;29.73;46.83;102298.97;5021550;28;20044;-64
2023/08/20 08:55:52;;;;;;;0.00;0.00;;;;;;;29.13;49.40;102304.09;5029147;28;20017;-63
2023/08/20 08:58:17;;;;;;;0.00;0.00;;;;;;;29.60;49.00;102297.09;5028849;28;20088;-66
2023/08/20 09:00:43;;;;;;;0.00;0.00;;;;;;;30.12;47.46;102299.81;5028226;28;20038;-64
2023/08/20 09:03:08;;;;;;;0.00;0.00;;;;;;;29.77;47.97;102298.03;5028816;28;20068;-64
2023/08/20 09:05:48;;;;;;;0.00;0.00;;;;;;;29.13;49.05;102304.94;5031520;28;20129;-65
2023/08/20 09:08:27;;;;;;;0.00;0.00;;;;;;;29.71;48.34;102306.75;5025684;28;20152;-64
2023/08/20 09:10:54;;;;;;;0.00;0.00;;;;;;;29.25;49.75;102302.41;5027467;28;20048;-64
2023/08/20 09:13:32;;;;;;;0.00;0.00;;;;;;;30.02;48.37;102293.72;5021573;28;20034;-64
2023/08/20 09:15:58;;;;;;;0.00;0.00;;;;;;;29.20;49.83;102301.72;5025243;28;20108;-64
2023/08/20 09:18:23;;;;;;;0.00;0.00;;;;;;;29.40;49.54;102299.25;5040922;28;20396;-65
2023/08/20 09:20:49;;;;;;;0.00;0.00;;;;;;;29.22;49.44;102302.22;5040719;28;20038;-65
2023/08/20 09:23:15;;;;;;;0.00;0.00;;;;;;;29.64;48.39;102307.22;5047397;28;20037;-65
2023/08/20 09:25:42;;;;;;;0.00;0.00;;;;;;;29.86;48.12;102300.81;5050881;28;20597;-64
2023/08/20 09:28:08;;;;;;;0.00;0.00;;;;;;;29.62;47.92;102305.91;5051082;28;20116;-64
2023/08/20 09:30:34;;;;;;;0.00;0.00;;;;;;;29.57;49.07;102301.31;5049731;28;20123;-64
2023/08/20 09:33:04;;;;;;;0.00;0.00;;;;;;;29.16;50.14;102309.84;5050566;28;20052;-65
2023/08/20 09:35:29;;;;;;;;;;;;;;;30.12;47.25;102313.66;5051338;28;20067;-65
2023/08/20 09:38:03;;;;;;;0.00;0.00;;;;;;;29.97;47.10;102303.03;5049758;28;20377;-63
2023/08/20 09:40:29;;;;;;;0.00;0.00;;;;;;;29.52;47.82;102307.78;5050872;28;20070;-66
2023/08/20 09:42:55;;;;;;;0.00;0.00;;;;;;;29.85;46.92;102308.34;5047619;28;20404;-63
2023/08/20 09:45:22;;;;;;;0.00;0.00;;;;;;;30.04;46.93;102308.06;5050877;28;20043;-65
2023/08/20 09:47:49;;;;;;;0.00;0.00;;;;;;;30.43;46.44;102321.94;5048934;28;20037;-64
2023/08/20 09:50:18;;;;;;;0.00;0.00;;;;;;;30.72;44.95;102315.78;5049976;28;20045;-64
2023/08/20 09:53:15;;;;;;;0.00;0.00;;;;;;;29.82;46.87;102308.97;5049089;28;20044;-64
2023/08/20 09:55:42;;;;;;;0.00;0.00;;;;;;;29.92;46.59;102314.22;5048576;28;20063;-64
2023/08/20 09:58:09;;;;;;;0.00;0.00;;;;;;;30.26;46.31;102314.38;5048189;28;20078;-64
2023/08/20 10:00:35;;;;;;;0.00;0.00;;;;;;;30.07;45.59;102316.56;5051735;28;20025;-65
2023/08/20 10:03:02;;;;;;;0.00;0.00;;;;;;;30.44;44.39;102315.25;5046873;28;20025;-64
2023/08/20 10:05:27;;;;;;;0.00;0.00;;;;;;;30.07;44.98;102310.22;5049967;28;20523;-64
2023/08/20 10:07:55;;;;;;;0.00;0.00;;;;;;;30.55;43.19;102322.13;5032234;28;20048;-64
2023/08/20 10:10:21;;;;;;;0.00;0.00;;;;;;;30.01;43.52;102315.09;5031678;28;20072;-63
2023/08/20 10:12:48;;;;;;;0.00;0.00;;;;;;;30.01;42.54;102325.38;5030046;28;20033;-65
2023/08/20 10:15:14;;;;;;;0.00;0.00;;;;;;;30.77;42.80;102327.56;5034958;28;20045;-65
2023/08/20 10:17:42;;;;;;;0.00;0.00;;;;;;;30.99;41.41;102321.06;5042573;28;20064;-65
2023/08/20 10:20:08;;;;;;;0.00;0.00;;;;;;;31.49;40.44;102315.81;5046806;28;20017;-65
2023/08/20 10:22:38;;;;;;;0.00;0.00;;;;;;;31.21;40.39;102326.44;5046143;28;20043;-65
2023/08/20 10:25:08;;;;;;;0.00;0.00;;;;;;;31.54;38.70;102319.22;5049611;28;20076;-66
2023/08/20 10:27:38;;;;;;;0.00;0.00;;;;;;;31.95;37.53;102324.19;5049059;28;20033;-65
2023/08/20 10:30:16;;;;;;;;;;;;;;;32.14;36.96;102316.22;5049809;28;20048;-65
2023/08/20 10:32:47;;;;;;;0.00;0.00;;;;;;;31.91;38.01;102321.25;5044946;28;20426;-65
2023/08/20 10:35:15;;;;;;;0.00;0.00;;;;;;;32.40;36.71;102318.88;5050340;28;20020;-65
2023/08/20 10:38:00;;;;;;;0.00;0.00;;;;;;;31.26;36.81;102320.69;5047548;28;20103;-64
2023/08/20 10:40:48;;;;;;;0.00;0.00;;;;;;;32.52;36.38;102314.25;5042534;28;20041;-65
2023/08/20 10:43:34;;;;;;;0.00;0.00;;;;;;;31.14;37.80;102326.94;5046180;28;20040;-65
2023/08/20 10:46:19;;;;;;;0.00;0.00;;;;;;;32.13;36.60;102325.75;5026878;28;20029;-66
2023/08/20 10:48:51;;;;;;;0.00;0.00;;;;;;;32.19;36.38;102320.78;5027329;28;20030;-67
2023/08/20 10:51:30;;;;;;;0.00;0.00;;;;;;;32.30;36.87;102319.25;5028934;28;20048;-66
2023/08/20 10:54:05;;;;;;;0.00;0.00;;;;;;;32.53;36.38;102328.97;5029173;28;20505;-67
2023/08/20 10:56:40;;;;;;;0.00;0.00;;;;;;;32.85;35.42;102326.28;5026547;28;20086;-64
2023/08/20 10:59:08;;;;;;;0.00;0.00;;;;;;;32.26;36.79;102321.88;5008544;28;20400;-64
2023/08/20 11:01:34;;;;;;;0.00;0.00;;;;;;;32.21;36.35;102324.06;5031068;28;20028;-66
2023/08/20 11:04:04;;;;;;;0.00;0.00;;;;;;;32.50;36.60;102319.31;5039594;28;20067;-66
2023/08/20 11:06:32;;;;;;;0.00;0.00;;;;;;;32.46;36.65;102323.94;5030479;28;20061;-67
2023/08/20 11:08:57;;;;;;;0.00;0.00;;;;;;;32.50;36.19;102329.63;5048798;28;20040;-67
2023/08/20 11:11:23;;;;;;;0.00;0.00;;;;;;;33.07;36.83;102322.34;5048629;28;20053;-65
2023/08/20 11:13:49;;;;;;;0.00;0.00;;;;;;;34.17;34.21;102321.47;5049078;28;20028;-66
2023/08/20 11:16:14;;;;;;;0.00;0.00;;;;;;;33.32;36.09;102321.28;5047841;28;20029;-66
2023/08/20 11:18:40;;;;;;;0.00;0.00;;;;;;;32.41;37.55;102317.72;5049386;28;20109;-64
2023/08/20 11:21:05;;;;;;;0.00;0.00;;;;;;;32.34;37.48;102323.00;5048845;28;20045;-63
2023/08/20 11:23:31;;;;;;;0.00;0.00;;;;;;;32.57;37.68;102324.38;5048734;28;20083;-65
2023/08/20 11:25:57;;;;;;;0.00;0.00;;;;;;;32.77;37.98;102318.78;5048645;28;20029;-65